sensor_id;sensor_type;location;lat;lon;timestamp;pressure;altitude;pressure_sealevel;temperature;humidity
9893;BME280;4985;49.092;8.542;2023-04-01T00:01:58;97921.31;;;16.66;52.92
9893;BME280;4985;49.092;8.542;2023-04-01T00:04:24;97908.03;;;16.66;52.93
9893;BME280;4985;49.092;8.542;2023-04-01T00:06:51;97916.00;;;16.66;52.93
9893;BME280;4985;49.092;8.542;2023-04-01T00:09:18;97908.03;;;16.66;52.93
9893;BME280;4985;49.092;8.542;2023-04-01T00:11:46;97913.34;;;16.66;52.93
9893;BME280;4985;49.092;8.542;2023-04-01T00:14:12;97920.50;;;16.66;52.93
9893;BME280;4985;49.092;8.542;2023-04-01T00:16:39;97918.66;;;16.66;52.93
9893;BME280;4985;49.092;8.542;2023-04-01T00:19:05;97911.72;;;16.65;52.93
9893;BME280;4985;49.092;8.542;2023-04-01T00:21:32;97914.38;;;16.65;52.93
9893;BME280;4985;49.092;8.542;2023-04-01T00:23:59;97918.06;;;16.64;52.93
9893;BME280;4985;49.092;8.542;2023-04-01T00:26:25;97905.56;;;16.65;52.94
9893;BME280;4985;49.092;8.542;2023-04-01T00:28:53;97910.09;;;16.64;52.93
9893;BME280;4985;49.092;8.542;2023-04-01T00:31:20;97913.78;;;16.63;52.94
9893;BME280;4985;49.092;8.542;2023-04-01T00:33:47;97911.38;;;16.62;52.94
9893;BME280;4985;49.092;8.542;2023-04-01T00:36:15;97904.19;;;16.62;52.96
9893;BME280;4985;49.092;8.542;2023-04-01T00:38:42;97914.81;;;16.62;52.97
9893;BME280;4985;49.092;8.542;2023-04-01T00:41:09;97920.16;;;16.62;52.98
9893;BME280;4985;49.092;8.542;2023-04-01T00:43:40;97918.53;;;16.61;52.97
9893;BME280;4985;49.092;8.542;2023-04-01T00:46:08;97910.56;;;16.61;52.99
9893;BME280;4985;49.092;8.542;2023-04-01T00:48:37;97922.81;;;16.62;52.96
9893;BME280;4985;49.092;8.542;2023-04-01T00:51:07;97922.00;;;16.62;52.95
9893;BME280;4985;49.092;8.542;2023-04-01T00:53:37;97920.16;;;16.62;52.96
9893;BME280;4985;49.092;8.542;2023-04-01T00:56:07;97908.94;;;16.60;52.97
9893;BME280;4985;49.092;8.542;2023-04-01T00:58:39;97916.91;;;16.60;52.98
9893;BME280;4985;49.092;8.542;2023-04-01T01:01:08;97919.56;;;16.60;52.98
9893;BME280;4985;49.092;8.542;2023-04-01T01:03:35;97904.69;;;16.59;52.99
9893;BME280;4985;49.092;8.542;2023-04-01T01:06:12;97908.16;;;16.59;52.98
9893;BME280;4985;49.092;8.542;2023-04-01T01:09:03;97915.31;;;16.59;52.98
9893;BME280;4985;49.092;8.542;2023-04-01T01:11:37;97909.44;;;16.57;53.00
9893;BME280;4985;49.092;8.542;2023-04-01T01:14:12;97918.19;;;16.57;53.02
9893;BME280;4985;49.092;8.542;2023-04-01T01:16:47;97909.44;;;16.57;53.02
9893;BME280;4985;49.092;8.542;2023-04-01T01:19:40;97915.53;;;16.57;53.02
9893;BME280;4985;49.092;8.542;2023-04-01T01:22:29;97909.44;;;16.57;53.03
9893;BME280;4985;49.092;8.542;2023-04-01T01:25:14;97909.44;;;16.57;53.03
9893;BME280;4985;49.092;8.542;2023-04-01T01:27:47;97901.47;;;16.57;53.01
9893;BME280;4985;49.092;8.542;2023-04-01T01:30:38;97895.34;;;16.56;53.01
9893;BME280;4985;49.092;8.542;2023-04-01T01:33:19;97906.22;;;16.55;53.02
9893;BME280;4985;49.092;8.542;2023-04-01T01:35:52;97894.53;;;16.56;53.03
9893;BME280;4985;49.092;8.542;2023-04-01T01:38:23;97900.91;;;16.55;53.02
9893;BME280;4985;49.092;8.542;2023-04-01T01:40:52;97899.03;;;16.55;53.00
9893;BME280;4985;49.092;8.542;2023-04-01T01:43:22;97905.41;;;16.54;53.01
9893;BME280;4985;49.092;8.542;2023-04-01T01:45:52;97901.69;;;16.55;53.02
9893;BME280;4985;49.092;8.542;2023-04-01T01:48:20;97900.09;;;16.54;53.03
9893;BME280;4985;49.092;8.542;2023-04-01T01:50:49;97889.09;;;16.51;53.04
9893;BME280;4985;49.092;8.542;2023-04-01T01:53:16;97885.16;;;16.53;53.03
9893;BME280;4985;49.092;8.542;2023-04-01T01:55:44;97898.44;;;16.53;53.03
9893;BME280;4985;49.092;8.542;2023-04-01T01:58:16;97892.00;;;16.49;53.03
9893;BME280;4985;49.092;8.542;2023-04-01T02:00:47;97888.66;;;16.54;53.04
9893;BME280;4985;49.092;8.542;2023-04-01T02:03:17;97896.63;;;16.54;53.02
9893;BME280;4985;49.092;8.542;2023-04-01T02:05:45;97908.25;;;16.53;53.04
9893;BME280;4985;49.092;8.542;2023-04-01T02:08:16;97898.44;;;16.53;53.04
9893;BME280;4985;49.092;8.542;2023-04-01T02:10:50;97888.06;;;16.52;53.04
9893;BME280;4985;49.092;8.542;2023-04-01T02:13:25;97878.25;;;16.52;53.04
9893;BME280;4985;49.092;8.542;2023-04-01T02:15:58;97878.25;;;16.52;53.04
9893;BME280;4985;49.092;8.542;2023-04-01T02:18:28;97871.06;;;16.53;53.02
9893;BME280;4985;49.092;8.542;2023-04-01T02:20:57;97887.00;;;16.53;53.01
9893;BME280;4985;49.092;8.542;2023-04-01T02:23:27;97884.34;;;16.53;53.01
9893;BME280;4985;49.092;8.542;2023-04-01T02:25:54;97882.75;;;16.52;53.01
9893;BME280;4985;49.092;8.542;2023-04-01T02:28:22;97872.94;;;16.52;53.01
9893;BME280;4985;49.092;8.542;2023-04-01T02:30:50;97872.13;;;16.52;53.03
9893;BME280;4985;49.092;8.542;2023-04-01T02:33:19;97885.41;;;16.52;53.03
9893;BME280;4985;49.092;8.542;2023-04-01T02:35:46;97871.00;;;16.48;53.03
9893;BME280;4985;49.092;8.542;2023-04-01T02:38:13;97883.78;;;16.51;53.02
9893;BME280;4985;49.092;8.542;2023-04-01T02:40:44;97882.19;;;16.50;53.04
9893;BME280;4985;49.092;8.542;2023-04-01T02:43:11;97882.19;;;16.50;53.05
9893;BME280;4985;49.092;8.542;2023-04-01T02:45:38;97881.13;;;16.51;53.04
9893;BME280;4985;49.092;8.542;2023-04-01T02:48:05;97867.03;;;16.50;53.01
9893;BME280;4985;49.092;8.542;2023-04-01T02:50:32;97886.44;;;16.51;53.02
9893;BME280;4985;49.092;8.542;2023-04-01T02:52:58;97876.88;;;16.50;53.02
9893;BME280;4985;49.092;8.542;2023-04-01T02:55:25;97876.88;;;16.50;53.03
9893;BME280;4985;49.092;8.542;2023-04-01T02:57:53;97869.94;;;16.49;53.03
9893;BME280;4985;49.092;8.542;2023-04-01T03:00:19;97871.78;;;16.48;53.04
9893;BME280;4985;49.092;8.542;2023-04-01T03:02:46;97869.94;;;16.49;53.03
9893;BME280;4985;49.092;8.542;2023-04-01T03:05:13;97851.59;;;16.47;53.03
9893;BME280;4985;49.092;8.542;2023-04-01T03:07:39;97869.13;;;16.48;53.04
9893;BME280;4985;49.092;8.542;2023-04-01T03:10:07;97863.81;;;16.48;53.04
9893;BME280;4985;49.092;8.542;2023-04-01T03:12:34;97879.75;;;16.48;53.05
9893;BME280;4985;49.092;8.542;2023-04-01T03:15:02;97861.41;;;16.47;53.03
9893;BME280;4985;49.092;8.542;2023-04-01T03:17:29;97861.41;;;16.47;53.03
9893;BME280;4985;49.092;8.542;2023-04-01T03:19:55;97854.25;;;16.47;53.04
9893;BME280;4985;49.092;8.542;2023-04-01T03:22:22;97863.03;;;16.48;53.04
9893;BME280;4985;49.092;8.542;2023-04-01T03:24:48;97860.59;;;16.46;53.03
9893;BME280;4985;49.092;8.542;2023-04-01T03:27:15;97865.09;;;16.46;53.03
9893;BME280;4985;49.092;8.542;2023-04-01T03:29:42;97860.84;;;16.45;53.04
9893;BME280;4985;49.092;8.542;2023-04-01T03:32:10;97874.69;;;16.47;53.04
9893;BME280;4985;49.092;8.542;2023-04-01T03:34:36;97870.41;;;16.46;53.05
9893;BME280;4985;49.092;8.542;2023-04-01T03:37:03;97881.84;;;16.46;53.04
9893;BME280;4985;49.092;8.542;2023-04-01T03:39:31;97875.72;;;16.46;53.04
9893;BME280;4985;49.092;8.542;2023-04-01T03:41:57;97887.41;;;16.45;53.03
9893;BME280;4985;49.092;8.542;2023-04-01T03:44:24;97881.03;;;16.46;53.04
9893;BME280;4985;49.092;8.542;2023-04-01T03:46:51;97881.28;;;16.44;53.05
9893;BME280;4985;49.092;8.542;2023-04-01T03:49:19;97877.59;;;16.45;53.03
9893;BME280;4985;49.092;8.542;2023-04-01T03:51:45;97879.44;;;16.45;53.04
9893;BME280;4985;49.092;8.542;2023-04-01T03:54:12;97872.28;;;16.45;53.04
9893;BME280;4985;49.092;8.542;2023-04-01T03:56:38;97868.00;;;16.44;53.03
9893;BME280;4985;49.092;8.542;2023-04-01T03:59:08;97869.50;;;16.40;53.04
9893;BME280;4985;49.092;8.542;2023-04-01T04:01:34;97876.78;;;16.45;53.03
9893;BME280;4985;49.092;8.542;2023-04-01T04:04:01;97874.13;;;16.45;53.03
9893;BME280;4985;49.092;8.542;2023-04-01T04:06:29;97871.47;;;16.45;53.01
9893;BME280;4985;49.092;8.542;2023-04-01T04:08:56;97877.81;;;16.44;53.02
9893;BME280;4985;49.092;8.542;2023-04-01T04:11:23;97871.69;;;16.43;53.03
9893;BME280;4985;49.092;8.542;2023-04-01T04:13:49;97867.19;;;16.44;53.04
9893;BME280;4985;49.092;8.542;2023-04-01T04:16:17;97861.09;;;16.43;53.02
9893;BME280;4985;49.092;8.542;2023-04-01T04:18:44;97864.53;;;16.44;53.01
9893;BME280;4985;49.092;8.542;2023-04-01T04:21:12;97870.09;;;16.42;53.02
9893;BME280;4985;49.092;8.542;2023-04-01T04:23:40;97869.25;;;16.42;53.01
9893;BME280;4985;49.092;8.542;2023-04-01T04:26:09;97869.25;;;16.42;53.03
9893;BME280;4985;49.092;8.542;2023-04-01T04:28:36;97877.22;;;16.42;53.02
9893;BME280;4985;49.092;8.542;2023-04-01T04:31:03;97874.56;;;16.42;53.02
9893;BME280;4985;49.092;8.542;2023-04-01T04:33:31;97875.63;;;16.41;53.03
9893;BME280;4985;49.092;8.542;2023-04-01T04:35:59;97870.09;;;16.42;53.02
9893;BME280;4985;49.092;8.542;2023-04-01T04:38:26;97885.19;;;16.42;53.02
9893;BME280;4985;49.092;8.542;2023-04-01T04:40:54;97858.87;;;16.40;53.01
9893;BME280;4985;49.092;8.542;2023-04-01T04:43:21;97881.72;;;16.41;53.02
9893;BME280;4985;49.092;8.542;2023-04-01T04:45:48;97872.97;;;16.41;53.03
9893;BME280;4985;49.092;8.542;2023-04-01T04:48:16;97872.97;;;16.41;53.01
9893;BME280;4985;49.092;8.542;2023-04-01T04:50:44;97870.31;;;16.41;53.02
9893;BME280;4985;49.092;8.542;2023-04-01T04:53:11;97867.66;;;16.41;53.02
9893;BME280;4985;49.092;8.542;2023-04-01T04:55:37;97864.19;;;16.40;53.01
9893;BME280;4985;49.092;8.542;2023-04-01T04:58:05;97851.72;;;16.41;53.01
9893;BME280;4985;49.092;8.542;2023-04-01T05:00:32;97860.72;;;16.40;52.99
9893;BME280;4985;49.092;8.542;2023-04-01T05:02:59;97865.00;;;16.41;53.01
9893;BME280;4985;49.092;8.542;2023-04-01T05:05:25;97867.66;;;16.41;53.01
9893;BME280;4985;49.092;8.542;2023-04-01T05:07:52;97852.75;;;16.40;53.02
9893;BME280;4985;49.092;8.542;2023-04-01T05:10:19;97856.47;;;16.39;53.00
9893;BME280;4985;49.092;8.542;2023-04-01T05:12:46;97853.81;;;16.39;53.01
9893;BME280;4985;49.092;8.542;2023-04-01T05:15:14;97840.75;;;16.37;53.02
9893;BME280;4985;49.092;8.542;2023-04-01T05:17:40;97837.88;;;16.39;53.01
9893;BME280;4985;49.092;8.542;2023-04-01T05:20:07;97838.91;;;16.38;53.01
9893;BME280;4985;49.092;8.542;2023-04-01T05:22:34;97853.22;;;16.37;53.04
9893;BME280;4985;49.092;8.542;2023-04-01T05:25:00;97845.28;;;16.37;53.04
9893;BME280;4985;49.092;8.542;2023-04-01T05:27:27;97853.22;;;16.37;53.05
9893;BME280;4985;49.092;8.542;2023-04-01T05:29:54;97842.38;;;16.38;53.04
9893;BME280;4985;49.092;8.542;2023-04-01T05:32:22;97842.63;;;16.37;53.03
9893;BME280;4985;49.092;8.542;2023-04-01T05:34:50;97838.91;;;16.38;53.01
9893;BME280;4985;49.092;8.542;2023-04-01T05:37:17;97837.06;;;16.38;53.02
9893;BME280;4985;49.092;8.542;2023-04-01T05:39:44;97839.97;;;16.37;53.03
9893;BME280;4985;49.092;8.542;2023-04-01T05:42:10;97838.09;;;16.37;53.02
9893;BME280;4985;49.092;8.542;2023-04-01T05:44:37;97828.53;;;16.36;53.02
9893;BME280;4985;49.092;8.542;2023-04-01T05:47:04;97833.03;;;16.36;53.04
9893;BME280;4985;49.092;8.542;2023-04-01T05:49:33;97838.34;;;16.36;53.03
9893;BME280;4985;49.092;8.542;2023-04-01T05:52:00;97832.22;;;16.35;53.02
9893;BME280;4985;49.092;8.542;2023-04-01T05:54:27;97842.84;;;16.35;53.03
9893;BME280;4985;49.092;8.542;2023-04-01T05:56:53;97834.09;;;16.35;53.05
9893;BME280;4985;49.092;8.542;2023-04-01T05:59:20;97860.63;;;16.35;53.06
9893;BME280;4985;49.092;8.542;2023-04-01T06:01:47;97849.44;;;16.33;53.08
9893;BME280;4985;49.092;8.542;2023-04-01T06:04:15;97860.88;;;16.33;53.09
9893;BME280;4985;49.092;8.542;2023-04-01T06:06:43;97858.22;;;16.33;53.09
9893;BME280;4985;49.092;8.542;2023-04-01T06:09:14;97848.41;;;16.34;53.09
9893;BME280;4985;49.092;8.542;2023-04-01T06:11:51;97851.06;;;16.34;53.09
9893;BME280;4985;49.092;8.542;2023-04-01T06:14:30;97867.56;;;16.36;53.08
9893;BME280;4985;49.092;8.542;2023-04-01T06:17:11;97852.66;;;16.35;53.07
9893;BME280;4985;49.092;8.542;2023-04-01T06:19:49;97854.75;;;16.33;53.06
9893;BME280;4985;49.092;8.542;2023-04-01T06:22:40;97857.97;;;16.35;53.07
9893;BME280;4985;49.092;8.542;2023-04-01T06:25:23;97857.19;;;16.34;53.07
9893;BME280;4985;49.092;8.542;2023-04-01T06:28:02;97866.19;;;16.33;53.07
9893;BME280;4985;49.092;8.542;2023-04-01T06:30:33;97860.88;;;16.33;53.09
9893;BME280;4985;49.092;8.542;2023-04-01T06:33:17;97871.72;;;16.32;53.09
9893;BME280;4985;49.092;8.542;2023-04-01T06:35:55;97865.38;;;16.33;53.10
9893;BME280;4985;49.092;8.542;2023-04-01T06:39:06;97872.53;;;16.32;53.10
9893;BME280;4985;49.092;8.542;2023-04-01T06:41:58;97876.00;;;16.33;53.10
9893;BME280;4985;49.092;8.542;2023-04-01T06:44:36;97872.53;;;16.32;53.11
9893;BME280;4985;49.092;8.542;2023-04-01T06:47:23;97879.47;;;16.33;53.11
9893;BME280;4985;49.092;8.542;2023-04-01T06:50:01;97878.66;;;16.33;53.09
9893;BME280;4985;49.092;8.542;2023-04-01T06:52:40;97880.25;;;16.34;53.09
9893;BME280;4985;49.092;8.542;2023-04-01T06:55:23;97869.66;;;16.34;53.08
9893;BME280;4985;49.092;8.542;2023-04-01T06:57:53;97872.75;;;16.30;53.06
9893;BME280;4985;49.092;8.542;2023-04-01T07:00:27;97879.69;;;16.32;53.09
9893;BME280;4985;49.092;8.542;2023-04-01T07:03:01;97870.69;;;16.33;53.08
9893;BME280;4985;49.092;8.542;2023-04-01T07:05:32;97868.03;;;16.33;53.08
9893;BME280;4985;49.092;8.542;2023-04-01T07:08:01;97882.94;;;16.34;53.08
9893;BME280;4985;49.092;8.542;2023-04-01T07:10:35;97881.31;;;16.33;53.08
9893;BME280;4985;49.092;8.542;2023-04-01T07:13:06;97878.66;;;16.33;53.09
9893;BME280;4985;49.092;8.542;2023-04-01T07:15:38;97882.34;;;16.32;53.09
9893;BME280;4985;49.092;8.542;2023-04-01T07:18:12;97871.72;;;16.32;53.08
9893;BME280;4985;49.092;8.542;2023-04-01T07:20:41;97886.62;;;16.33;53.09
9893;BME280;4985;49.092;8.542;2023-04-01T07:23:15;97877.84;;;16.32;53.09
9893;BME280;4985;49.092;8.542;2023-04-01T07:25:46;97880.50;;;16.32;53.08
9893;BME280;4985;49.092;8.542;2023-04-01T07:28:15;97871.72;;;16.32;53.10
9893;BME280;4985;49.092;8.542;2023-04-01T07:30:51;97880.50;;;16.32;53.11
9893;BME280;4985;49.092;8.542;2023-04-01T07:33:23;97880.72;;;16.30;53.11
9893;BME280;4985;49.092;8.542;2023-04-01T07:36:01;97879.69;;;16.32;53.10
9893;BME280;4985;49.092;8.542;2023-04-01T07:38:34;97878.66;;;16.33;53.09
9893;BME280;4985;49.092;8.542;2023-04-01T07:41:10;97882.34;;;16.32;53.08
9893;BME280;4985;49.092;8.542;2023-04-01T07:43:56;97886.84;;;16.31;53.10
9893;BME280;4985;49.092;8.542;2023-04-01T07:46:42;97887.66;;;16.32;53.09
9893;BME280;4985;49.092;8.542;2023-04-01T07:49:14;97894.81;;;16.31;53.09
9893;BME280;4985;49.092;8.542;2023-04-01T07:51:46;97901.75;;;16.32;53.09
9893;BME280;4985;49.092;8.542;2023-04-01T07:54:21;97895.63;;;16.32;53.12
9893;BME280;4985;49.092;8.542;2023-04-01T07:56:55;97903.59;;;16.32;53.10
9893;BME280;4985;49.092;8.542;2023-04-01T07:59:29;97902.78;;;16.31;53.10
9893;BME280;4985;49.092;8.542;2023-04-01T08:02:06;97903.59;;;16.32;53.12
9893;BME280;4985;49.092;8.542;2023-04-01T08:04:48;97900.94;;;16.32;53.12
9893;BME280;4985;49.092;8.542;2023-04-01T08:07:21;97888.69;;;16.30;53.14
9893;BME280;4985;49.092;8.542;2023-04-01T08:09:55;97899.31;;;16.30;53.13
9893;BME280;4985;49.092;8.542;2023-04-01T08:12:35;97889.50;;;16.31;53.13
9893;BME280;4985;49.092;8.542;2023-04-01T08:15:12;97890.31;;;16.32;53.12
9893;BME280;4985;49.092;8.542;2023-04-01T08:17:47;97884.19;;;16.31;53.11
9893;BME280;4985;49.092;8.542;2023-04-01T08:20:25;97887.66;;;16.32;53.10
9893;BME280;4985;49.092;8.542;2023-04-01T08:22:58;97886.84;;;16.31;53.11
9893;BME280;4985;49.092;8.542;2023-04-01T08:25:28;97889.50;;;16.31;53.11
9893;BME280;4985;49.092;8.542;2023-04-01T08:28:00;97886.03;;;16.30;53.11
9893;BME280;4985;49.092;8.542;2023-04-01T08:30:36;97873.78;;;16.29;53.13
9893;BME280;4985;49.092;8.542;2023-04-01T08:33:12;97895.03;;;16.29;53.16
9893;BME280;4985;49.092;8.542;2023-04-01T08:35:46;97885.22;;;16.30;53.16
9893;BME280;4985;49.092;8.542;2023-04-01T08:38:18;97901.16;;;16.30;53.19
9893;BME280;4985;49.092;8.542;2023-04-01T08:40:59;97894.00;;;16.30;53.19
9893;BME280;4985;49.092;8.542;2023-04-01T08:43:45;97893.19;;;16.30;53.19
9893;BME280;4985;49.092;8.542;2023-04-01T08:46:39;97893.19;;;16.30;53.20
9893;BME280;4985;49.092;8.542;2023-04-01T08:49:21;97892.97;;;16.32;53.21
9893;BME280;4985;49.092;8.542;2023-04-01T08:52:20;97891.34;;;16.30;53.22
9893;BME280;4985;49.092;8.542;2023-04-01T08:55:19;97891.34;;;16.30;53.24
9893;BME280;4985;49.092;8.542;2023-04-01T08:57:59;97889.50;;;16.31;53.23
9893;BME280;4985;49.092;8.542;2023-04-01T09:00:32;97883.97;;;16.33;53.23
9893;BME280;4985;49.092;8.542;2023-04-01T09:03:25;97885.81;;;16.32;53.24
9893;BME280;4985;49.092;8.542;2023-04-01T09:06:25;97884.78;;;16.33;53.24
9893;BME280;4985;49.092;8.542;2023-04-01T09:12:23;97889.50;;;16.31;53.29
9893;BME280;4985;49.092;8.542;2023-04-01T09:15:01;97896.87;;;16.29;53.34
9893;BME280;4985;49.092;8.542;2023-04-01T09:26:48;97901.94;;;16.30;53.42
9893;BME280;4985;49.092;8.542;2023-04-01T09:29:30;97891.34;;;16.30;53.44
9893;BME280;4985;49.092;8.542;2023-04-01T09:32:33;97899.31;;;16.30;53.44
9893;BME280;4985;49.092;8.542;2023-04-01T09:35:20;97901.75;;;16.32;53.43
9893;BME280;4985;49.092;8.542;2023-04-01T09:37:53;97905.22;;;16.33;53.44
9893;BME280;4985;49.092;8.542;2023-04-01T09:40:24;97911.09;;;16.35;53.43
9893;BME280;4985;49.092;8.542;2023-04-01T09:46:07;97908.66;;;16.33;53.40
9893;BME280;4985;49.092;8.542;2023-04-01T09:48:47;97911.09;;;16.35;53.40
9893;BME280;4985;49.092;8.542;2023-04-01T09:51:31;97903.13;;;16.35;53.41
9893;BME280;4985;49.092;8.542;2023-04-01T09:54:13;97900.47;;;16.35;53.40
9893;BME280;4985;49.092;8.542;2023-04-01T09:57:05;97906.00;;;16.33;53.41
9893;BME280;4985;49.092;8.542;2023-04-01T09:59:47;97905.78;;;16.35;53.41
9893;BME280;4985;49.092;8.542;2023-04-01T10:02:33;97914.78;;;16.34;53.42
9893;BME280;4985;49.092;8.542;2023-04-01T10:08:36;97915.59;;;16.34;53.46
9893;BME280;4985;49.092;8.542;2023-04-01T10:11:20;97914.78;;;16.34;53.46
9893;BME280;4985;49.092;8.542;2023-04-01T10:14:24;97909.91;;;16.30;53.46
9893;BME280;4985;49.092;8.542;2023-04-01T10:17:08;97923.31;;;16.36;53.46
9893;BME280;4985;49.092;8.542;2023-04-01T10:20:05;97923.31;;;16.36;53.45
9893;BME280;4985;49.092;8.542;2023-04-01T10:22:59;97920.44;;;16.37;53.43
9893;BME280;4985;49.092;8.542;2023-04-01T10:28:57;97930.00;;;16.38;53.42
9893;BME280;4985;49.092;8.542;2023-04-01T10:34:55;97941.69;;;16.37;53.43
9893;BME280;4985;49.092;8.542;2023-04-01T10:40:53;97937.97;;;16.38;53.44
9893;BME280;4985;49.092;8.542;2023-04-01T10:43:54;97949.41;;;16.39;53.45
9893;BME280;4985;49.092;8.542;2023-04-01T10:47:02;97942.25;;;16.39;53.45
9893;BME280;4985;49.092;8.542;2023-04-01T10:49:57;97929.78;;;16.40;53.45
9893;BME280;4985;49.092;8.542;2023-04-01T10:53:04;97944.66;;;16.41;53.44
9893;BME280;4985;49.092;8.542;2023-04-01T10:55:37;97928.16;;;16.39;53.43
9893;BME280;4985;49.092;8.542;2023-04-01T11:14:07;97939.34;;;16.41;53.54
9893;BME280;4985;49.092;8.542;2023-04-01T11:17:00;97946.28;;;16.42;53.55
9893;BME280;4985;49.092;8.542;2023-04-01T11:20:01;97946.50;;;16.40;53.54
9893;BME280;4985;49.092;8.542;2023-04-01T11:22:51;97944.47;;;16.42;53.55
9893;BME280;4985;49.092;8.542;2023-04-01T11:25:41;97946.28;;;16.42;53.55
9893;BME280;4985;49.092;8.542;2023-04-01T11:28:24;97940.75;;;16.43;53.53
9893;BME280;4985;49.092;8.542;2023-04-01T11:31:09;97950.56;;;16.43;53.53
9893;BME280;4985;49.092;8.542;2023-04-01T11:33:42;97948.50;;;16.45;53.52
9893;BME280;4985;49.092;8.542;2023-04-01T11:36:22;97954.59;;;16.45;53.52
9893;BME280;4985;49.092;8.542;2023-04-01T11:39:01;97959.13;;;16.45;53.53
9893;BME280;4985;49.092;8.542;2023-04-01T11:41:36;97960.72;;;16.46;53.53
9893;BME280;4985;49.092;8.542;2023-04-01T11:44:16;97959.91;;;16.45;53.55
9893;BME280;4985;49.092;8.542;2023-04-01T11:46:59;97978.50;;;16.45;53.57
9893;BME280;4985;49.092;8.542;2023-04-01T11:49:41;97966.03;;;16.46;53.58
9893;BME280;4985;49.092;8.542;2023-04-01T11:52:21;97975.63;;;16.47;53.57
9893;BME280;4985;49.092;8.542;2023-04-01T11:55:04;97978.28;;;16.47;53.57
9893;BME280;4985;49.092;8.542;2023-04-01T11:58:00;97985.19;;;16.48;53.55
9893;BME280;4985;49.092;8.542;2023-04-01T12:00:43;97980.69;;;16.48;53.54
9893;BME280;4985;49.092;8.542;2023-04-01T12:06:23;97980.69;;;16.48;53.55
9893;BME280;4985;49.092;8.542;2023-04-01T12:09:04;97996.63;;;16.48;53.56
9893;BME280;4985;49.092;8.542;2023-04-01T12:11:38;97991.06;;;16.50;53.56
9893;BME280;4985;49.092;8.542;2023-04-01T12:14:13;98003.56;;;16.49;53.54
9893;BME280;4985;49.092;8.542;2023-04-01T12:16:49;97988.19;;;16.51;53.53
9893;BME280;4985;49.092;8.542;2023-04-01T12:19:26;98001.47;;;16.51;53.51
9893;BME280;4985;49.092;8.542;2023-04-01T12:22:10;98000.66;;;16.51;53.50
9893;BME280;4985;49.092;8.542;2023-04-01T12:24:56;98003.09;;;16.52;53.49
9893;BME280;4985;49.092;8.542;2023-04-01T12:27:35;98003.87;;;16.53;53.47
9893;BME280;4985;49.092;8.542;2023-04-01T12:30:30;97998.56;;;16.53;53.45
9893;BME280;4985;49.092;8.542;2023-04-01T12:33:10;98001.72;;;16.50;53.44
9893;BME280;4985;49.092;8.542;2023-04-01T12:35:50;98003.87;;;16.53;53.45
9893;BME280;4985;49.092;8.542;2023-04-01T12:38:28;98007.34;;;16.53;53.46
9893;BME280;4985;49.092;8.542;2023-04-01T12:41:09;98003.87;;;16.53;53.46
9893;BME280;4985;49.092;8.542;2023-04-01T12:44:00;98010.84;;;16.54;53.46
9893;BME280;4985;49.092;8.542;2023-04-01T12:46:38;98009.81;;;16.55;53.46
9893;BME280;4985;49.092;8.542;2023-04-01T12:49:27;98023.88;;;16.55;53.46
9893;BME280;4985;49.092;8.542;2023-04-01T12:52:04;98022.03;;;16.56;53.43
9893;BME280;4985;49.092;8.542;2023-04-01T12:54:57;98001.47;;;16.51;53.40
9893;BME280;4985;49.092;8.542;2023-04-01T12:57:41;98022.28;;;16.54;53.41
9893;BME280;4985;49.092;8.542;2023-04-01T13:00:27;98017.78;;;16.55;53.40
9893;BME280;4985;49.092;8.542;2023-04-01T13:03:11;98009.00;;;16.54;53.39
9893;BME280;4985;49.092;8.542;2023-04-01T13:09:03;98028.97;;;16.57;53.37
9893;BME280;4985;49.092;8.542;2023-04-01T13:11:41;98026.31;;;16.57;53.37
9893;BME280;4985;49.092;8.542;2023-04-01T13:14:30;98028.97;;;16.57;53.35
9893;BME280;4985;49.092;8.542;2023-04-01T13:17:07;98039.34;;;16.58;53.36
9893;BME280;4985;49.092;8.542;2023-04-01T13:19:39;98035.91;;;16.58;53.35
9893;BME280;4985;49.092;8.542;2023-04-01T13:22:13;98035.91;;;16.58;53.34
9893;BME280;4985;49.092;8.542;2023-04-01T13:24:45;98036.69;;;16.58;53.33
9893;BME280;4985;49.092;8.542;2023-04-01T13:27:18;98050.78;;;16.59;53.33
9893;BME280;4985;49.092;8.542;2023-04-01T13:29:59;98047.56;;;16.57;53.33
9893;BME280;4985;49.092;8.542;2023-04-01T13:32:34;98047.09;;;16.60;53.32
9893;BME280;4985;49.092;8.542;2023-04-01T13:35:20;98045.47;;;16.59;53.32
9893;BME280;4985;49.092;8.542;2023-04-01T13:37:58;98042.00;;;16.58;53.32
9893;BME280;4985;49.092;8.542;2023-04-01T13:40:33;98042.81;;;16.59;53.30
9893;BME280;4985;49.092;8.542;2023-04-01T13:43:12;98054.25;;;16.59;53.29
9893;BME280;4985;49.092;8.542;2023-04-01T13:45:55;98045.47;;;16.59;53.30
9893;BME280;4985;49.092;8.542;2023-04-01T13:48:30;98041.78;;;16.60;53.31
9893;BME280;4985;49.092;8.542;2023-04-01T13:51:09;98034.84;;;16.59;53.29
9893;BME280;4985;49.092;8.542;2023-04-01T13:54:03;98055.88;;;16.60;53.28
9893;BME280;4985;49.092;8.542;2023-04-01T13:56:40;98042.59;;;16.60;53.26
9893;BME280;4985;49.092;8.542;2023-04-01T13:59:38;98050.56;;;16.60;53.25
9893;BME280;4985;49.092;8.542;2023-04-01T14:02:28;98053.22;;;16.60;53.25
9893;BME280;4985;49.092;8.542;2023-04-01T14:05:19;98055.88;;;16.60;53.24
9893;BME280;4985;49.092;8.542;2023-04-01T14:07:59;98062.00;;;16.61;53.24
9893;BME280;4985;49.092;8.542;2023-04-01T14:10:36;98056.69;;;16.61;53.22
9893;BME280;4985;49.092;8.542;2023-04-01T14:13:13;98054.03;;;16.61;53.22
9893;BME280;4985;49.092;8.542;2023-04-01T14:18:55;98065.44;;;16.62;53.24
9893;BME280;4985;49.092;8.542;2023-04-01T14:21:34;98066.25;;;16.62;53.23
9893;BME280;4985;49.092;8.542;2023-04-01T14:24:45;98052.97;;;16.62;53.23
9893;BME280;4985;49.092;8.542;2023-04-01T14:27:30;98058.53;;;16.60;53.25
9893;BME280;4985;49.092;8.542;2023-04-01T14:30:18;98054.03;;;16.61;53.26
9893;BME280;4985;49.092;8.542;2023-04-01T14:32:51;98060.13;;;16.62;53.27
9893;BME280;4985;49.092;8.542;2023-04-01T14:35:32;98051.38;;;16.61;53.27
9893;BME280;4985;49.092;8.542;2023-04-01T14:38:11;98054.81;;;16.62;53.27
9893;BME280;4985;49.092;8.542;2023-04-01T14:40:55;98065.44;;;16.62;53.28
9893;BME280;4985;49.092;8.542;2023-04-01T14:43:36;98068.91;;;16.62;53.29
9893;BME280;4985;49.092;8.542;2023-04-01T14:46:34;98072.37;;;16.63;53.29
9893;BME280;4985;49.092;8.542;2023-04-01T14:49:16;98060.13;;;16.62;53.28
9893;BME280;4985;49.092;8.542;2023-04-01T14:51:48;98070.44;;;16.58;53.29
9893;BME280;4985;49.092;8.542;2023-04-01T14:54:19;98077.94;;;16.61;53.30
9893;BME280;4985;49.092;8.542;2023-04-01T14:56:50;98077.94;;;16.61;53.30
9893;BME280;4985;49.092;8.542;2023-04-01T14:59:27;98077.94;;;16.61;53.29
9893;BME280;4985;49.092;8.542;2023-04-01T15:02:01;98070.75;;;16.62;53.28